sensor_id;sensor_type;location;lat;lon;timestamp;P1;durP1;ratioP1;P2;durP2;ratioP2
6985;SDS011;3533;51.246;6.850;2023-09-18T00:00:41;3.27;;;3.10;;
6985;SDS011;3533;51.246;6.850;2023-09-18T00:03:07;3.13;;;2.93;;
6985;SDS011;3533;51.246;6.850;2023-09-18T00:05:33;3.43;;;3.23;;
6985;SDS011;3533;51.246;6.850;2023-09-18T00:07:59;3.47;;;3.27;;
6985;SDS011;3533;51.246;6.850;2023-09-18T00:10:27;3.20;;;3.00;;
6985;SDS011;3533;51.246;6.850;2023-09-18T00:12:53;3.10;;;3.00;;
6985;SDS011;3533;51.246;6.850;2023-09-18T00:15:19;3.57;;;3.37;;
6985;SDS011;3533;51.246;6.850;2023-09-18T00:17:45;2.90;;;2.77;;
6985;SDS011;3533;51.246;6.850;2023-09-18T00:20:11;3.60;;;3.40;;
6985;SDS011;3533;51.246;6.850;2023-09-18T00:22:36;3.03;;;2.83;;
6985;SDS011;3533;51.246;6.850;2023-09-18T00:25:02;3.13;;;2.93;;
6985;SDS011;3533;51.246;6.850;2023-09-18T00:27:28;3.00;;;2.90;;
6985;SDS011;3533;51.246;6.850;2023-09-18T00:29:54;3.50;;;3.30;;
6985;SDS011;3533;51.246;6.850;2023-09-18T00:32:20;3.17;;;2.97;;
6985;SDS011;3533;51.246;6.850;2023-09-18T00:34:46;3.53;;;3.33;;
6985;SDS011;3533;51.246;6.850;2023-09-18T00:37:11;3.00;;;2.80;;
6985;SDS011;3533;51.246;6.850;2023-09-18T00:39:37;3.87;;;3.67;;
6985;SDS011;3533;51.246;6.850;2023-09-18T00:42:03;3.63;;;3.43;;
6985;SDS011;3533;51.246;6.850;2023-09-18T00:44:29;3.37;;;3.20;;
6985;SDS011;3533;51.246;6.850;2023-09-18T00:46:54;3.07;;;2.87;;
6985;SDS011;3533;51.246;6.850;2023-09-18T00:49:21;3.47;;;3.27;;
6985;SDS011;3533;51.246;6.850;2023-09-18T00:51:47;2.80;;;2.70;;
6985;SDS011;3533;51.246;6.850;2023-09-18T00:54:14;3.80;;;3.50;;
6985;SDS011;3533;51.246;6.850;2023-09-18T00:56:43;3.13;;;3.00;;
6985;SDS011;3533;51.246;6.850;2023-09-18T00:59:13;3.30;;;3.10;;
6985;SDS011;3533;51.246;6.850;2023-09-18T01:01:39;3.40;;;3.20;;
6985;SDS011;3533;51.246;6.850;2023-09-18T01:04:07;3.33;;;3.17;;
6985;SDS011;3533;51.246;6.850;2023-09-18T01:06:32;3.10;;;3.00;;
6985;SDS011;3533;51.246;6.850;2023-09-18T01:08:58;3.00;;;2.80;;
6985;SDS011;3533;51.246;6.850;2023-09-18T01:14:33;3.20;;;3.00;;
6985;SDS011;3533;51.246;6.850;2023-09-18T01:17:07;3.50;;;3.30;;
6985;SDS011;3533;51.246;6.850;2023-09-18T01:19:39;3.30;;;3.10;;
6985;SDS011;3533;51.246;6.850;2023-09-18T01:22:12;2.80;;;2.70;;
6985;SDS011;3533;51.246;6.850;2023-09-18T01:24:39;3.13;;;3.03;;
6985;SDS011;3533;51.246;6.850;2023-09-18T01:27:12;3.47;;;3.27;;
6985;SDS011;3533;51.246;6.850;2023-09-18T01:29:41;3.53;;;3.33;;
6985;SDS011;3533;51.246;6.850;2023-09-18T01:32:11;3.23;;;3.03;;
6985;SDS011;3533;51.246;6.850;2023-09-18T01:34:41;3.47;;;3.27;;
6985;SDS011;3533;51.246;6.850;2023-09-18T01:37:10;3.47;;;3.27;;
6985;SDS011;3533;51.246;6.850;2023-09-18T01:39:37;3.60;;;3.40;;
6985;SDS011;3533;51.246;6.850;2023-09-18T01:42:04;3.20;;;3.00;;
6985;SDS011;3533;51.246;6.850;2023-09-18T01:44:31;3.20;;;3.00;;
6985;SDS011;3533;51.246;6.850;2023-09-18T01:46:58;3.50;;;3.30;;
6985;SDS011;3533;51.246;6.850;2023-09-18T01:49:37;3.70;;;3.40;;
6985;SDS011;3533;51.246;6.850;2023-09-18T01:52:04;3.40;;;3.20;;
6985;SDS011;3533;51.246;6.850;2023-09-18T01:54:31;3.30;;;3.10;;
6985;SDS011;3533;51.246;6.850;2023-09-18T01:56:57;3.50;;;3.30;;
6985;SDS011;3533;51.246;6.850;2023-09-18T01:59:22;3.70;;;3.50;;
6985;SDS011;3533;51.246;6.850;2023-09-18T02:01:49;3.23;;;3.10;;
6985;SDS011;3533;51.246;6.850;2023-09-18T02:04:15;3.60;;;3.40;;
6985;SDS011;3533;51.246;6.850;2023-09-18T02:06:42;3.57;;;3.37;;
6985;SDS011;3533;51.246;6.850;2023-09-18T02:09:08;3.67;;;3.47;;
6985;SDS011;3533;51.246;6.850;2023-09-18T02:11:39;3.30;;;3.10;;
6985;SDS011;3533;51.246;6.850;2023-09-18T02:14:07;4.07;;;3.60;;
6985;SDS011;3533;51.246;6.850;2023-09-18T02:16:34;3.47;;;3.27;;
6985;SDS011;3533;51.246;6.850;2023-09-18T02:19:03;3.63;;;3.43;;
6985;SDS011;3533;51.246;6.850;2023-09-18T02:21:29;3.20;;;2.90;;
6985;SDS011;3533;51.246;6.850;2023-09-18T02:23:54;3.80;;;3.50;;
6985;SDS011;3533;51.246;6.850;2023-09-18T02:26:21;3.53;;;3.33;;
6985;SDS011;3533;51.246;6.850;2023-09-18T02:28:47;3.60;;;3.40;;
6985;SDS011;3533;51.246;6.850;2023-09-18T02:31:13;3.63;;;3.43;;
6985;SDS011;3533;51.246;6.850;2023-09-18T02:33:39;3.50;;;3.30;;
6985;SDS011;3533;51.246;6.850;2023-09-18T02:36:05;3.30;;;3.20;;
6985;SDS011;3533;51.246;6.850;2023-09-18T02:38:31;3.53;;;3.33;;
6985;SDS011;3533;51.246;6.850;2023-09-18T02:40:57;3.20;;;3.10;;
6985;SDS011;3533;51.246;6.850;2023-09-18T02:43:23;3.70;;;3.50;;
6985;SDS011;3533;51.246;6.850;2023-09-18T02:45:49;3.47;;;3.27;;
6985;SDS011;3533;51.246;6.850;2023-09-18T02:48:15;3.33;;;3.13;;
6985;SDS011;3533;51.246;6.850;2023-09-18T02:50:41;3.03;;;2.93;;
6985;SDS011;3533;51.246;6.850;2023-09-18T02:53:07;3.43;;;3.23;;
6985;SDS011;3533;51.246;6.850;2023-09-18T02:55:36;3.37;;;3.17;;
6985;SDS011;3533;51.246;6.850;2023-09-18T02:58:02;3.70;;;3.50;;
6985;SDS011;3533;51.246;6.850;2023-09-18T03:00:28;3.40;;;3.20;;
6985;SDS011;3533;51.246;6.850;2023-09-18T03:02:53;3.30;;;3.10;;
6985;SDS011;3533;51.246;6.850;2023-09-18T03:05:19;3.47;;;3.27;;
6985;SDS011;3533;51.246;6.850;2023-09-18T03:07:44;3.30;;;3.10;;
6985;SDS011;3533;51.246;6.850;2023-09-18T03:10:10;3.43;;;3.23;;
6985;SDS011;3533;51.246;6.850;2023-09-18T03:12:39;3.33;;;3.13;;
6985;SDS011;3533;51.246;6.850;2023-09-18T03:15:04;3.53;;;3.33;;
6985;SDS011;3533;51.246;6.850;2023-09-18T03:17:31;3.40;;;3.20;;
6985;SDS011;3533;51.246;6.850;2023-09-18T03:19:57;3.53;;;3.33;;
6985;SDS011;3533;51.246;6.850;2023-09-18T03:22:22;3.60;;;3.40;;
6985;SDS011;3533;51.246;6.850;2023-09-18T03:24:48;3.60;;;3.40;;
6985;SDS011;3533;51.246;6.850;2023-09-18T03:27:13;3.20;;;3.10;;
6985;SDS011;3533;51.246;6.850;2023-09-18T03:29:39;3.43;;;3.23;;
6985;SDS011;3533;51.246;6.850;2023-09-18T03:32:04;3.27;;;3.07;;
6985;SDS011;3533;51.246;6.850;2023-09-18T03:34:30;3.70;;;3.50;;
6985;SDS011;3533;51.246;6.850;2023-09-18T03:36:56;3.17;;;3.07;;
6985;SDS011;3533;51.246;6.850;2023-09-18T03:39:21;3.40;;;3.20;;
6985;SDS011;3533;51.246;6.850;2023-09-18T03:41:47;3.30;;;3.10;;
6985;SDS011;3533;51.246;6.850;2023-09-18T03:44:12;3.70;;;3.50;;
6985;SDS011;3533;51.246;6.850;2023-09-18T03:46:38;3.63;;;3.43;;
6985;SDS011;3533;51.246;6.850;2023-09-18T03:49:03;3.70;;;3.50;;
6985;SDS011;3533;51.246;6.850;2023-09-18T03:51:29;3.17;;;2.97;;
6985;SDS011;3533;51.246;6.850;2023-09-18T03:53:55;3.30;;;3.20;;
6985;SDS011;3533;51.246;6.850;2023-09-18T03:56:21;3.43;;;3.23;;
6985;SDS011;3533;51.246;6.850;2023-09-18T03:58:47;3.97;;;3.57;;
6985;SDS011;3533;51.246;6.850;2023-09-18T04:01:15;3.90;;;3.60;;
6985;SDS011;3533;51.246;6.850;2023-09-18T04:03:40;3.60;;;3.40;;
6985;SDS011;3533;51.246;6.850;2023-09-18T04:06:06;3.70;;;3.50;;
6985;SDS011;3533;51.246;6.850;2023-09-18T04:08:32;4.00;;;3.80;;
6985;SDS011;3533;51.246;6.850;2023-09-18T04:10:57;4.07;;;3.87;;
6985;SDS011;3533;51.246;6.850;2023-09-18T04:13:23;3.97;;;3.70;;
6985;SDS011;3533;51.246;6.850;2023-09-18T04:15:49;3.47;;;3.27;;
6985;SDS011;3533;51.246;6.850;2023-09-18T04:18:15;3.37;;;3.17;;
6985;SDS011;3533;51.246;6.850;2023-09-18T04:20:40;3.60;;;3.40;;
6985;SDS011;3533;51.246;6.850;2023-09-18T04:23:22;3.97;;;3.77;;
6985;SDS011;3533;51.246;6.850;2023-09-18T04:25:49;3.67;;;3.40;;
6985;SDS011;3533;51.246;6.850;2023-09-18T04:28:16;3.70;;;3.50;;
6985;SDS011;3533;51.246;6.850;2023-09-18T04:30:43;3.70;;;3.50;;
6985;SDS011;3533;51.246;6.850;2023-09-18T04:33:09;3.77;;;3.57;;
6985;SDS011;3533;51.246;6.850;2023-09-18T04:35:34;4.03;;;3.83;;
6985;SDS011;3533;51.246;6.850;2023-09-18T04:38:00;3.57;;;3.37;;
6985;SDS011;3533;51.246;6.850;2023-09-18T04:40:26;3.60;;;3.40;;
6985;SDS011;3533;51.246;6.850;2023-09-18T04:42:51;4.30;;;3.60;;
6985;SDS011;3533;51.246;6.850;2023-09-18T04:45:17;3.57;;;3.37;;
6985;SDS011;3533;51.246;6.850;2023-09-18T04:47:43;4.10;;;3.80;;
6985;SDS011;3533;51.246;6.850;2023-09-18T04:50:08;3.70;;;3.40;;
6985;SDS011;3533;51.246;6.850;2023-09-18T04:52:35;4.27;;;3.97;;
6985;SDS011;3533;51.246;6.850;2023-09-18T04:55:05;3.30;;;3.07;;
6985;SDS011;3533;51.246;6.850;2023-09-18T04:57:31;3.97;;;3.77;;
6985;SDS011;3533;51.246;6.850;2023-09-18T04:59:57;4.60;;;4.30;;
6985;SDS011;3533;51.246;6.850;2023-09-18T05:02:22;3.53;;;3.33;;
6985;SDS011;3533;51.246;6.850;2023-09-18T05:04:50;3.77;;;3.43;;
6985;SDS011;3533;51.246;6.850;2023-09-18T05:07:16;3.90;;;3.70;;
6985;SDS011;3533;51.246;6.850;2023-09-18T05:09:41;3.70;;;3.50;;
6985;SDS011;3533;51.246;6.850;2023-09-18T05:12:08;3.13;;;2.83;;
6985;SDS011;3533;51.246;6.850;2023-09-18T05:14:38;3.43;;;3.23;;
6985;SDS011;3533;51.246;6.850;2023-09-18T05:17:14;3.40;;;3.20;;
6985;SDS011;3533;51.246;6.850;2023-09-18T05:19:41;3.77;;;3.57;;
6985;SDS011;3533;51.246;6.850;2023-09-18T05:22:08;2.87;;;2.77;;
6985;SDS011;3533;51.246;6.850;2023-09-18T05:24:35;3.00;;;2.90;;
6985;SDS011;3533;51.246;6.850;2023-09-18T05:27:01;3.60;;;3.40;;
6985;SDS011;3533;51.246;6.850;2023-09-18T05:29:27;3.30;;;3.17;;
6985;SDS011;3533;51.246;6.850;2023-09-18T05:31:53;3.23;;;3.03;;
6985;SDS011;3533;51.246;6.850;2023-09-18T05:34:18;3.23;;;3.03;;
6985;SDS011;3533;51.246;6.850;2023-09-18T05:36:44;3.87;;;3.50;;
6985;SDS011;3533;51.246;6.850;2023-09-18T05:39:09;3.63;;;3.47;;
6985;SDS011;3533;51.246;6.850;2023-09-18T05:41:37;4.60;;;4.20;;
6985;SDS011;3533;51.246;6.850;2023-09-18T05:44:06;3.67;;;3.47;;
6985;SDS011;3533;51.246;6.850;2023-09-18T05:46:35;3.80;;;3.53;;
6985;SDS011;3533;51.246;6.850;2023-09-18T05:49:01;3.60;;;3.40;;
6985;SDS011;3533;51.246;6.850;2023-09-18T05:51:27;3.97;;;3.77;;
6985;SDS011;3533;51.246;6.850;2023-09-18T05:53:53;4.83;;;4.53;;
6985;SDS011;3533;51.246;6.850;2023-09-18T05:56:19;4.00;;;3.80;;
6985;SDS011;3533;51.246;6.850;2023-09-18T05:58:44;3.70;;;3.50;;
6985;SDS011;3533;51.246;6.850;2023-09-18T06:01:10;4.00;;;3.70;;
6985;SDS011;3533;51.246;6.850;2023-09-18T06:03:35;3.90;;;3.60;;
6985;SDS011;3533;51.246;6.850;2023-09-18T06:06:01;3.73;;;3.30;;
6985;SDS011;3533;51.246;6.850;2023-09-18T06:08:28;4.00;;;3.70;;
6985;SDS011;3533;51.246;6.850;2023-09-18T06:10:55;3.60;;;3.40;;
6985;SDS011;3533;51.246;6.850;2023-09-18T06:13:21;3.87;;;3.67;;
6985;SDS011;3533;51.246;6.850;2023-09-18T06:15:47;4.70;;;4.30;;
6985;SDS011;3533;51.246;6.850;2023-09-18T06:18:12;4.20;;;4.00;;
6985;SDS011;3533;51.246;6.850;2023-09-18T06:20:38;4.37;;;4.07;;
6985;SDS011;3533;51.246;6.850;2023-09-18T06:23:06;4.13;;;3.93;;
6985;SDS011;3533;51.246;6.850;2023-09-18T06:25:31;3.20;;;3.00;;
6985;SDS011;3533;51.246;6.850;2023-09-18T06:27:57;4.33;;;3.93;;
6985;SDS011;3533;51.246;6.850;2023-09-18T06:30:23;3.80;;;3.60;;
6985;SDS011;3533;51.246;6.850;2023-09-18T06:32:48;3.97;;;3.67;;
6985;SDS011;3533;51.246;6.850;2023-09-18T06:35:14;3.83;;;3.63;;
6985;SDS011;3533;51.246;6.850;2023-09-18T06:37:39;4.43;;;4.07;;
6985;SDS011;3533;51.246;6.850;2023-09-18T06:40:05;3.70;;;3.50;;
6985;SDS011;3533;51.246;6.850;2023-09-18T06:42:31;4.10;;;3.80;;
6985;SDS011;3533;51.246;6.850;2023-09-18T06:44:57;3.67;;;3.37;;
6985;SDS011;3533;51.246;6.850;2023-09-18T06:47:23;4.00;;;3.80;;
6985;SDS011;3533;51.246;6.850;2023-09-18T06:49:49;3.97;;;3.77;;
6985;SDS011;3533;51.246;6.850;2023-09-18T06:52:16;3.90;;;3.70;;
6985;SDS011;3533;51.246;6.850;2023-09-18T06:54:41;3.70;;;3.50;;
6985;SDS011;3533;51.246;6.850;2023-09-18T06:57:08;3.73;;;3.50;;
6985;SDS011;3533;51.246;6.850;2023-09-18T06:59:34;4.10;;;3.90;;
6985;SDS011;3533;51.246;6.850;2023-09-18T07:02:00;3.40;;;3.20;;
6985;SDS011;3533;51.246;6.850;2023-09-18T07:04:26;4.10;;;3.80;;
6985;SDS011;3533;51.246;6.850;2023-09-18T07:06:52;3.30;;;3.00;;
6985;SDS011;3533;51.246;6.850;2023-09-18T07:09:21;3.80;;;3.60;;
6985;SDS011;3533;51.246;6.850;2023-09-18T07:11:48;3.47;;;3.27;;
6985;SDS011;3533;51.246;6.850;2023-09-18T07:14:14;3.57;;;3.37;;
6985;SDS011;3533;51.246;6.850;2023-09-18T07:16:39;3.47;;;3.27;;
6985;SDS011;3533;51.246;6.850;2023-09-18T07:19:05;4.20;;;3.90;;
6985;SDS011;3533;51.246;6.850;2023-09-18T07:21:30;3.70;;;3.50;;
6985;SDS011;3533;51.246;6.850;2023-09-18T07:23:56;3.80;;;3.60;;
6985;SDS011;3533;51.246;6.850;2023-09-18T07:26:22;3.63;;;3.43;;
6985;SDS011;3533;51.246;6.850;2023-09-18T07:28:47;4.10;;;3.90;;
6985;SDS011;3533;51.246;6.850;2023-09-18T07:31:13;3.60;;;3.40;;
6985;SDS011;3533;51.246;6.850;2023-09-18T07:33:39;3.60;;;3.30;;
6985;SDS011;3533;51.246;6.850;2023-09-18T07:36:06;3.80;;;3.60;;
6985;SDS011;3533;51.246;6.850;2023-09-18T07:38:31;3.40;;;3.20;;
6985;SDS011;3533;51.246;6.850;2023-09-18T07:40:58;3.70;;;3.40;;
6985;SDS011;3533;51.246;6.850;2023-09-18T07:43:24;3.03;;;2.87;;
6985;SDS011;3533;51.246;6.850;2023-09-18T07:45:50;3.13;;;2.93;;
6985;SDS011;3533;51.246;6.850;2023-09-18T07:48:15;3.87;;;3.67;;
6985;SDS011;3533;51.246;6.850;2023-09-18T07:50:44;3.30;;;3.10;;
6985;SDS011;3533;51.246;6.850;2023-09-18T07:53:14;3.30;;;3.10;;
6985;SDS011;3533;51.246;6.850;2023-09-18T07:55:40;3.13;;;2.93;;
6985;SDS011;3533;51.246;6.850;2023-09-18T07:58:06;3.30;;;3.10;;
6985;SDS011;3533;51.246;6.850;2023-09-18T08:00:31;3.07;;;2.93;;
6985;SDS011;3533;51.246;6.850;2023-09-18T08:02:58;3.40;;;3.20;;
6985;SDS011;3533;51.246;6.850;2023-09-18T08:05:25;3.30;;;3.10;;
6985;SDS011;3533;51.246;6.850;2023-09-18T08:07:53;3.10;;;2.90;;
6985;SDS011;3533;51.246;6.850;2023-09-18T08:10:21;6.40;;;2.73;;
6985;SDS011;3533;51.246;6.850;2023-09-18T08:12:47;3.00;;;2.80;;
6985;SDS011;3533;51.246;6.850;2023-09-18T08:15:15;2.80;;;2.70;;
6985;SDS011;3533;51.246;6.850;2023-09-18T08:17:40;3.10;;;2.80;;
6985;SDS011;3533;51.246;6.850;2023-09-18T08:20:07;2.80;;;2.60;;
6985;SDS011;3533;51.246;6.850;2023-09-18T08:22:38;2.50;;;2.30;;
6985;SDS011;3533;51.246;6.850;2023-09-18T08:25:05;2.87;;;2.77;;
6985;SDS011;3533;51.246;6.850;2023-09-18T08:27:36;2.60;;;2.50;;
6985;SDS011;3533;51.246;6.850;2023-09-18T08:30:05;2.40;;;2.30;;
6985;SDS011;3533;51.246;6.850;2023-09-18T08:32:31;2.90;;;2.77;;
6985;SDS011;3533;51.246;6.850;2023-09-18T08:34:58;2.33;;;2.23;;
6985;SDS011;3533;51.246;6.850;2023-09-18T08:37:26;2.60;;;2.50;;
6985;SDS011;3533;51.246;6.850;2023-09-18T08:39:52;2.40;;;2.30;;
6985;SDS011;3533;51.246;6.850;2023-09-18T08:42:17;2.87;;;2.67;;
6985;SDS011;3533;51.246;6.850;2023-09-18T08:44:45;2.70;;;2.60;;
6985;SDS011;3533;51.246;6.850;2023-09-18T08:47:14;2.60;;;2.50;;
6985;SDS011;3533;51.246;6.850;2023-09-18T08:49:40;2.10;;;2.00;;
6985;SDS011;3533;51.246;6.850;2023-09-18T08:52:07;2.40;;;2.30;;
6985;SDS011;3533;51.246;6.850;2023-09-18T08:54:33;2.43;;;2.33;;
6985;SDS011;3533;51.246;6.850;2023-09-18T08:56:59;2.40;;;2.30;;
6985;SDS011;3533;51.246;6.850;2023-09-18T08:59:25;2.20;;;2.10;;
6985;SDS011;3533;51.246;6.850;2023-09-18T09:01:52;1.90;;;1.80;;
6985;SDS011;3533;51.246;6.850;2023-09-18T09:04:18;2.10;;;2.00;;
6985;SDS011;3533;51.246;6.850;2023-09-18T09:06:44;2.20;;;2.10;;
6985;SDS011;3533;51.246;6.850;2023-09-18T09:09:09;2.40;;;2.07;;
6985;SDS011;3533;51.246;6.850;2023-09-18T09:11:38;1.90;;;1.80;;
6985;SDS011;3533;51.246;6.850;2023-09-18T09:14:10;2.10;;;2.00;;
6985;SDS011;3533;51.246;6.850;2023-09-18T09:16:38;2.07;;;1.97;;
6985;SDS011;3533;51.246;6.850;2023-09-18T09:19:05;1.90;;;1.80;;
6985;SDS011;3533;51.246;6.850;2023-09-18T09:21:40;1.90;;;1.80;;
6985;SDS011;3533;51.246;6.850;2023-09-18T09:24:08;2.17;;;2.07;;
6985;SDS011;3533;51.246;6.850;2023-09-18T09:26:38;2.17;;;2.07;;
6985;SDS011;3533;51.246;6.850;2023-09-18T09:29:14;2.00;;;1.90;;
6985;SDS011;3533;51.246;6.850;2023-09-18T09:31:49;2.20;;;2.10;;
6985;SDS011;3533;51.246;6.850;2023-09-18T09:34:23;2.13;;;1.70;;
6985;SDS011;3533;51.246;6.850;2023-09-18T09:36:54;1.70;;;1.60;;
6985;SDS011;3533;51.246;6.850;2023-09-18T09:39:20;1.70;;;1.60;;
6985;SDS011;3533;51.246;6.850;2023-09-18T09:41:47;1.87;;;1.77;;
6985;SDS011;3533;51.246;6.850;2023-09-18T09:44:14;1.80;;;1.70;;
6985;SDS011;3533;51.246;6.850;2023-09-18T09:46:49;1.50;;;1.40;;
6985;SDS011;3533;51.246;6.850;2023-09-18T09:49:16;2.07;;;1.97;;
6985;SDS011;3533;51.246;6.850;2023-09-18T09:51:44;1.80;;;1.70;;
6985;SDS011;3533;51.246;6.850;2023-09-18T09:54:10;1.97;;;1.77;;
6985;SDS011;3533;51.246;6.850;2023-09-18T09:56:47;1.90;;;1.80;;
6985;SDS011;3533;51.246;6.850;2023-09-18T09:59:15;2.27;;;1.87;;
6985;SDS011;3533;51.246;6.850;2023-09-18T10:01:42;1.57;;;1.47;;
6985;SDS011;3533;51.246;6.850;2023-09-18T10:04:14;1.57;;;1.47;;
6985;SDS011;3533;51.246;6.850;2023-09-18T10:06:45;1.87;;;1.77;;
6985;SDS011;3533;51.246;6.850;2023-09-18T10:09:16;1.70;;;1.60;;
6985;SDS011;3533;51.246;6.850;2023-09-18T10:11:45;1.67;;;1.57;;
6985;SDS011;3533;51.246;6.850;2023-09-18T10:14:17;1.70;;;1.60;;
6985;SDS011;3533;51.246;6.850;2023-09-18T10:16:48;1.87;;;1.77;;
6985;SDS011;3533;51.246;6.850;2023-09-18T10:22:17;1.60;;;1.50;;
6985;SDS011;3533;51.246;6.850;2023-09-18T10:24:59;1.60;;;1.50;;
6985;SDS011;3533;51.246;6.850;2023-09-18T10:27:28;1.63;;;1.53;;
6985;SDS011;3533;51.246;6.850;2023-09-18T10:29:56;1.50;;;1.40;;
6985;SDS011;3533;51.246;6.850;2023-09-18T10:32:23;1.40;;;1.30;;
6985;SDS011;3533;51.246;6.850;2023-09-18T10:34:50;1.33;;;1.23;;
6985;SDS011;3533;51.246;6.850;2023-09-18T10:37:16;1.60;;;1.50;;
6985;SDS011;3533;51.246;6.850;2023-09-18T10:39:43;1.30;;;1.20;;
6985;SDS011;3533;51.246;6.850;2023-09-18T10:42:13;1.60;;;1.50;;
6985;SDS011;3533;51.246;6.850;2023-09-18T10:44:42;1.40;;;1.30;;
6985;SDS011;3533;51.246;6.850;2023-09-18T10:47:09;1.50;;;1.40;;
6985;SDS011;3533;51.246;6.850;2023-09-18T10:49:36;1.57;;;1.47;;
6985;SDS011;3533;51.246;6.850;2023-09-18T10:52:02;1.53;;;1.10;;
6985;SDS011;3533;51.246;6.850;2023-09-18T10:54:29;1.43;;;1.33;;
6985;SDS011;3533;51.246;6.850;2023-09-18T10:56:56;1.30;;;1.20;;
6985;SDS011;3533;51.246;6.850;2023-09-18T10:59:22;1.70;;;1.60;;
6985;SDS011;3533;51.246;6.850;2023-09-18T11:01:48;1.37;;;1.27;;
6985;SDS011;3533;51.246;6.850;2023-09-18T11:04:17;1.70;;;1.60;;
6985;SDS011;3533;51.246;6.850;2023-09-18T11:09:19;1.67;;;1.57;;
6985;SDS011;3533;51.246;6.850;2023-09-18T11:11:46;1.30;;;1.20;;
6985;SDS011;3533;51.246;6.850;2023-09-18T11:14:24;1.40;;;1.30;;
6985;SDS011;3533;51.246;6.850;2023-09-18T11:20:07;1.30;;;1.20;;
6985;SDS011;3533;51.246;6.850;2023-09-18T11:22:37;1.40;;;1.30;;
6985;SDS011;3533;51.246;6.850;2023-09-18T11:25:28;1.23;;;1.13;;
6985;SDS011;3533;51.246;6.850;2023-09-18T11:28:02;1.27;;;1.17;;
6985;SDS011;3533;51.246;6.850;2023-09-18T11:30:28;1.30;;;1.20;;
6985;SDS011;3533;51.246;6.850;2023-09-18T11:32:55;1.20;;;1.10;;
6985;SDS011;3533;51.246;6.850;2023-09-18T11:35:21;1.40;;;1.30;;
6985;SDS011;3533;51.246;6.850;2023-09-18T11:37:47;1.30;;;1.20;;
6985;SDS011;3533;51.246;6.850;2023-09-18T11:40:30;1.77;;;0.90;;
6985;SDS011;3533;51.246;6.850;2023-09-18T11:45:57;1.30;;;1.20;;
6985;SDS011;3533;51.246;6.850;2023-09-18T11:48:24;1.30;;;1.20;;
6985;SDS011;3533;51.246;6.850;2023-09-18T11:50:55;1.20;;;1.10;;
6985;SDS011;3533;51.246;6.850;2023-09-18T11:53:23;1.00;;;1.00;;
6985;SDS011;3533;51.246;6.850;2023-09-18T11:55:49;4.30;;;1.00;;
6985;SDS011;3533;51.246;6.850;2023-09-18T11:58:15;1.50;;;1.00;;
6985;SDS011;3533;51.246;6.850;2023-09-18T12:00:41;1.20;;;1.10;;
6985;SDS011;3533;51.246;6.850;2023-09-18T12:03:19;1.27;;;1.17;;
6985;SDS011;3533;51.246;6.850;2023-09-18T12:05:53;1.10;;;1.10;;
6985;SDS011;3533;51.246;6.850;2023-09-18T12:08:26;0.90;;;0.90;;
6985;SDS011;3533;51.246;6.850;2023-09-18T12:10:56;0.90;;;0.90;;
6985;SDS011;3533;51.246;6.850;2023-09-18T12:13:24;1.10;;;0.90;;
6985;SDS011;3533;51.246;6.850;2023-09-18T12:16:01;1.10;;;1.00;;
6985;SDS011;3533;51.246;6.850;2023-09-18T12:18:34;0.90;;;0.90;;
6985;SDS011;3533;51.246;6.850;2023-09-18T12:21:02;1.20;;;1.10;;
6985;SDS011;3533;51.246;6.850;2023-09-18T12:23:41;1.10;;;1.00;;
6985;SDS011;3533;51.246;6.850;2023-09-18T12:26:11;1.00;;;1.00;;
6985;SDS011;3533;51.246;6.850;2023-09-18T12:28:42;1.00;;;1.00;;
6985;SDS011;3533;51.246;6.850;2023-09-18T12:31:12;1.30;;;1.20;;
6985;SDS011;3533;51.246;6.850;2023-09-18T12:33:39;1.53;;;1.20;;
6985;SDS011;3533;51.246;6.850;2023-09-18T12:36:05;0.97;;;0.90;;
6985;SDS011;3533;51.246;6.850;2023-09-18T12:38:33;1.13;;;1.03;;
6985;SDS011;3533;51.246;6.850;2023-09-18T12:41:00;1.07;;;1.00;;
6985;SDS011;3533;51.246;6.850;2023-09-18T12:43:33;1.30;;;1.20;;
6985;SDS011;3533;51.246;6.850;2023-09-18T12:46:00;1.17;;;1.07;;
6985;SDS011;3533;51.246;6.850;2023-09-18T12:48:27;1.43;;;1.33;;
6985;SDS011;3533;51.246;6.850;2023-09-18T12:50:52;1.20;;;1.10;;
6985;SDS011;3533;51.246;6.850;2023-09-18T12:53:21;1.17;;;1.07;;
6985;SDS011;3533;51.246;6.850;2023-09-18T12:55:47;1.07;;;1.00;;
6985;SDS011;3533;51.246;6.850;2023-09-18T12:58:18;1.17;;;1.07;;
6985;SDS011;3533;51.246;6.850;2023-09-18T13:00:49;1.40;;;1.30;;
6985;SDS011;3533;51.246;6.850;2023-09-18T13:03:15;1.30;;;1.20;;
6985;SDS011;3533;51.246;6.850;2023-09-18T13:05:41;1.10;;;1.00;;
6985;SDS011;3533;51.246;6.850;2023-09-18T13:08:06;1.37;;;1.27;;
6985;SDS011;3533;51.246;6.850;2023-09-18T13:10:46;1.07;;;1.00;;
6985;SDS011;3533;51.246;6.850;2023-09-18T13:13:16;1.10;;;1.00;;
6985;SDS011;3533;51.246;6.850;2023-09-18T13:15:42;1.10;;;1.00;;
6985;SDS011;3533;51.246;6.850;2023-09-18T13:18:11;1.30;;;1.20;;
6985;SDS011;3533;51.246;6.850;2023-09-18T13:20:37;1.30;;;1.20;;
6985;SDS011;3533;51.246;6.850;2023-09-18T13:23:04;1.20;;;1.10;;
6985;SDS011;3533;51.246;6.850;2023-09-18T13:25:31;1.40;;;1.10;;
6985;SDS011;3533;51.246;6.850;2023-09-18T13:27:59;1.27;;;1.17;;
6985;SDS011;3533;51.246;6.850;2023-09-18T13:30:25;1.40;;;1.20;;
6985;SDS011;3533;51.246;6.850;2023-09-18T13:32:51;1.30;;;1.20;;
6985;SDS011;3533;51.246;6.850;2023-09-18T13:35:26;1.17;;;1.07;;
6985;SDS011;3533;51.246;6.850;2023-09-18T13:37:51;1.40;;;1.30;;
6985;SDS011;3533;51.246;6.850;2023-09-18T13:40:17;1.47;;;1.20;;
6985;SDS011;3533;51.246;6.850;2023-09-18T13:42:42;1.30;;;1.20;;
6985;SDS011;3533;51.246;6.850;2023-09-18T13:45:08;1.20;;;1.10;;
6985;SDS011;3533;51.246;6.850;2023-09-18T13:47:34;1.13;;;1.03;;
6985;SDS011;3533;51.246;6.850;2023-09-18T13:50:00;1.30;;;1.20;;
6985;SDS011;3533;51.246;6.850;2023-09-18T13:52:28;1.10;;;1.00;;
6985;SDS011;3533;51.246;6.850;2023-09-18T13:54:54;1.13;;;1.03;;
6985;SDS011;3533;51.246;6.850;2023-09-18T13:57:20;1.00;;;1.00;;
6985;SDS011;3533;51.246;6.850;2023-09-18T13:59:48;1.40;;;1.30;;
6985;SDS011;3533;51.246;6.850;2023-09-18T14:02:14;1.30;;;1.17;;
6985;SDS011;3533;51.246;6.850;2023-09-18T14:04:40;1.30;;;1.20;;
6985;SDS011;3533;51.246;6.850;2023-09-18T14:07:06;1.47;;;1.37;;
6985;SDS011;3533;51.246;6.850;2023-09-18T14:09:33;1.30;;;1.20;;
6985;SDS011;3533;51.246;6.850;2023-09-18T14:11:59;1.40;;;1.30;;
6985;SDS011;3533;51.246;6.850;2023-09-18T14:14:25;1.30;;;1.20;;
6985;SDS011;3533;51.246;6.850;2023-09-18T14:16:51;1.37;;;1.27;;
6985;SDS011;3533;51.246;6.850;2023-09-18T14:19:18;1.40;;;1.30;;
6985;SDS011;3533;51.246;6.850;2023-09-18T14:21:44;1.47;;;1.37;;
6985;SDS011;3533;51.246;6.850;2023-09-18T14:24:09;1.30;;;1.20;;
6985;SDS011;3533;51.246;6.850;2023-09-18T14:26:36;2.30;;;1.43;;
6985;SDS011;3533;51.246;6.850;2023-09-18T14:29:08;1.40;;;1.30;;
6985;SDS011;3533;51.246;6.850;2023-09-18T14:31:37;1.30;;;1.20;;
6985;SDS011;3533;51.246;6.850;2023-09-18T14:34:03;1.30;;;1.20;;
6985;SDS011;3533;51.246;6.850;2023-09-18T14:36:30;1.40;;;1.30;;
6985;SDS011;3533;51.246;6.850;2023-09-18T14:38:57;1.23;;;1.13;;
6985;SDS011;3533;51.246;6.850;2023-09-18T14:41:24;1.30;;;1.20;;
6985;SDS011;3533;51.246;6.850;2023-09-18T14:43:50;1.33;;;1.23;;
6985;SDS011;3533;51.246;6.850;2023-09-18T14:46:16;1.10;;;1.03;;
6985;SDS011;3533;51.246;6.850;2023-09-18T14:48:42;1.40;;;1.30;;
6985;SDS011;3533;51.246;6.850;2023-09-18T14:51:07;1.23;;;1.13;;
6985;SDS011;3533;51.246;6.850;2023-09-18T14:53:33;1.30;;;1.20;;
6985;SDS011;3533;51.246;6.850;2023-09-18T14:55:59;1.17;;;1.07;;
6985;SDS011;3533;51.246;6.850;2023-09-18T14:58:25;1.40;;;1.30;;
6985;SDS011;3533;51.246;6.850;2023-09-18T15:00:50;1.30;;;1.20;;
6985;SDS011;3533;51.246;6.850;2023-09-18T15:03:16;1.60;;;1.50;;
6985;SDS011;3533;51.246;6.850;2023-09-18T15:05:42;1.40;;;1.30;;
6985;SDS011;3533;51.246;6.850;2023-09-18T15:08:08;1.50;;;1.40;;
6985;SDS011;3533;51.246;6.850;2023-09-18T15:10:33;1.20;;;1.10;;
6985;SDS011;3533;51.246;6.850;2023-09-18T15:12:59;1.60;;;1.50;;
6985;SDS011;3533;51.246;6.850;2023-09-18T15:15:25;1.20;;;1.10;;
6985;SDS011;3533;51.246;6.850;2023-09-18T15:17:50;1.23;;;1.13;;
6985;SDS011;3533;51.246;6.850;2023-09-18T15:20:19;1.40;;;1.30;;
6985;SDS011;3533;51.246;6.850;2023-09-18T15:22:48;1.20;;;1.10;;
6985;SDS011;3533;51.246;6.850;2023-09-18T15:25:15;1.40;;;1.30;;
6985;SDS011;3533;51.246;6.850;2023-09-18T15:27:41;1.20;;;1.10;;
6985;SDS011;3533;51.246;6.850;2023-09-18T15:30:07;1.40;;;1.30;;